Cakewalk — ZGAZ — position and weather

sailwx.info

Track history (hours):
 
Tides and Currents Weather Stations Pressure Air Temp Water Temp Dewpoint Dewpoint Depression Visibility Wind Speed Wind Dir Waves Ship Positions

Cakewalk

Last reported at 2014-Jul-29 16:33 UTC. Time now 2014-Jul-29 16:54 UTC.
Position N 40°32' E 014°15'.

Length 86 m; draft 4 m.

Type: Pleasure craft. MMSI: 319020300.

Date/timePositionNaut miles runAvg speedWind from/ knotsBaromVisibWave heightAir tempDewpointWater temp
2014-Jul-29 16:33N 40°32' E 014°15'0 0.0
2014-Jul-29 15:33N 40°32' E 014°15'0 0.0
2014-Jul-29 14:33N 40°32' E 014°15'0 0.0
2014-Jul-29 13:33N 40°32' E 014°15'0 0.0
2014-Jul-29 12:30N 40°32' E 014°15'1 0.2
2014-Jul-29 08:22N 40°32' E 014°15'3 4.1
2014-Jul-29 07:33N 40°29' E 014°17'6 5.5
2014-Jul-29 06:31N 40°23' E 014°20'  
2014-Jul-26 08:20N 38°38' E 015°05'0 0.0
2014-Jul-26 03:29N 38°38' E 015°05'  
2014-Jul-20 16:07N 40°18' E 014°28'1016.0
2014-Jul-20 15:30N 40°27' E 014°22'1415.2
2014-Jul-20 14:34N 40°41' E 014°16'9 8.1
2014-Jul-20 13:28N 40°49' E 014°14'0 0.0
2014-Jul-20 12:31N 40°49' E 014°14'0 0.0
2014-Jul-20 11:28N 40°49' E 014°14'0 0.0
2014-Jul-20 10:31N 40°49' E 014°14'0 0.0
2014-Jul-20 09:31N 40°49' E 014°14'0 0.0
2014-Jul-20 08:28N 40°49' E 014°14'0 0.0
2014-Jul-20 07:31N 40°49' E 014°14'0 0.0
2014-Jul-20 06:31N 40°49' E 014°14'0 0.0
2014-Jul-20 05:31N 40°49' E 014°14'0 0.0
2014-Jul-20 04:31N 40°49' E 014°14'0 0.0
2014-Jul-20 03:28N 40°49' E 014°14'0 0.0
2014-Jul-20 02:28N 40°49' E 014°14'0 0.0
2014-Jul-20 01:31N 40°49' E 014°14'0 0.0
2014-Jul-20 00:07N 40°49' E 014°14'0 0.0
2014-Jul-19 23:04N 40°49' E 014°14'0 0.1
2014-Jul-19 22:22N 40°49' E 014°14'1213.1
2014-Jul-19 21:26N 40°41' E 014°02'1415.5
2014-Jul-19 20:33N 40°40' E 013°44'1615.9
2014-Jul-19 19:32N 40°45' E 013°24'1616.1
2014-Jul-19 18:33N 40°53' E 013°05'5 2.7
2014-Jul-19 16:34N 40°55' E 012°59'  
Track history (hours):
 
Tides and Currents Weather Stations Pressure Air Temp Water Temp Dewpoint Dewpoint Depression Visibility Wind Speed Wind Dir Waves Ship Positions

Cakewalk

Last reported at 2014-Jul-29 16:33 UTC. Time now 2014-Jul-29 16:54 UTC.
Position N 40°32' E 014°15'.

Length 86 m; draft 4 m.

Type: Pleasure craft. MMSI: 319020300.

Date/timePositionNaut miles runAvg speedWind from/ knotsBaromVisibWave heightAir tempDewpointWater temp
2014-Jul-29 16:33N 40°32' E 014°15'0 0.0
2014-Jul-29 15:33N 40°32' E 014°15'0 0.0
2014-Jul-29 14:33N 40°32' E 014°15'0 0.0
2014-Jul-29 13:33N 40°32' E 014°15'0 0.0
2014-Jul-29 12:30N 40°32' E 014°15'1 0.2
2014-Jul-29 08:22N 40°32' E 014°15'3 4.1
2014-Jul-29 07:33N 40°29' E 014°17'6 5.5
2014-Jul-29 06:31N 40°23' E 014°20'  
2014-Jul-26 08:20N 38°38' E 015°05'0 0.0
2014-Jul-26 03:29N 38°38' E 015°05'  
2014-Jul-20 16:07N 40°18' E 014°28'1016.0
2014-Jul-20 15:30N 40°27' E 014°22'1415.2
2014-Jul-20 14:34N 40°41' E 014°16'9 8.1
2014-Jul-20 13:28N 40°49' E 014°14'0 0.0
2014-Jul-20 12:31N 40°49' E 014°14'0 0.0
2014-Jul-20 11:28N 40°49' E 014°14'0 0.0
2014-Jul-20 10:31N 40°49' E 014°14'0 0.0
2014-Jul-20 09:31N 40°49' E 014°14'0 0.0
2014-Jul-20 08:28N 40°49' E 014°14'0 0.0
2014-Jul-20 07:31N 40°49' E 014°14'0 0.0
2014-Jul-20 06:31N 40°49' E 014°14'0 0.0
2014-Jul-20 05:31N 40°49' E 014°14'0 0.0
2014-Jul-20 04:31N 40°49' E 014°14'0 0.0
2014-Jul-20 03:28N 40°49' E 014°14'0 0.0
2014-Jul-20 02:28N 40°49' E 014°14'0 0.0
2014-Jul-20 01:31N 40°49' E 014°14'0 0.0
2014-Jul-20 00:07N 40°49' E 014°14'0 0.0
2014-Jul-19 23:04N 40°49' E 014°14'0 0.1
2014-Jul-19 22:22N 40°49' E 014°14'1213.1
2014-Jul-19 21:26N 40°41' E 014°02'1415.5
2014-Jul-19 20:33N 40°40' E 013°44'1615.9
2014-Jul-19 19:32N 40°45' E 013°24'1616.1
2014-Jul-19 18:33N 40°53' E 013°05'5 2.7
2014-Jul-19 16:34N 40°55' E 012°59'  

Dump ship's entire track history